createdAt,value
2017-10-28T00:00:34.723Z,10.83
2017-10-28T00:03:01.632Z,10.77
2017-10-28T00:05:27.837Z,10.83
2017-10-28T00:07:54.024Z,10.74
2017-10-28T00:10:20.941Z,10.75
2017-10-28T00:12:48.255Z,10.80
2017-10-28T00:15:14.419Z,10.74
2017-10-28T00:17:40.593Z,10.79
2017-10-28T00:20:06.800Z,10.75
2017-10-28T00:22:33.716Z,10.74
2017-10-28T00:24:59.893Z,10.73
2017-10-28T00:27:26.071Z,10.73
2017-10-28T00:29:53.001Z,10.77
2017-10-28T00:32:25.355Z,10.76
2017-10-28T00:34:57.740Z,10.79
2017-10-28T00:37:23.929Z,10.77
2017-10-28T00:39:50.870Z,10.81
2017-10-28T00:42:17.795Z,10.78
2017-10-28T00:44:43.962Z,10.82
2017-10-28T00:47:10.147Z,10.85
2017-10-28T00:49:36.304Z,10.95
2017-10-28T00:52:02.485Z,10.89
2017-10-28T00:54:28.667Z,10.86
2017-10-28T00:56:54.831Z,10.88
2017-10-28T00:59:20.995Z,10.89
2017-10-28T01:01:48.264Z,10.93
2017-10-28T01:04:14.433Z,10.95
2017-10-28T01:06:40.591Z,10.94
2017-10-28T01:09:07.528Z,10.98
2017-10-28T01:11:33.720Z,11.00
2017-10-28T01:13:59.888Z,11.03
2017-10-28T01:16:26.095Z,11.02
2017-10-28T01:18:52.268Z,11.04
2017-10-28T01:21:18.482Z,11.07
2017-10-28T01:23:45.434Z,11.10
2017-10-28T01:26:11.619Z,11.08
2017-10-28T01:28:37.786Z,11.08
2017-10-28T01:31:04.705Z,11.07
2017-10-28T01:33:30.868Z,11.00
2017-10-28T01:35:57.029Z,10.96
2017-10-28T01:38:23.260Z,10.90
2017-10-28T01:40:49.435Z,10.94
2017-10-28T01:43:16.338Z,10.90
2017-10-28T01:45:42.532Z,10.91
2017-10-28T01:48:08.716Z,10.95
2017-10-28T01:50:35.623Z,10.93
2017-10-28T01:53:01.840Z,10.92
2017-10-28T01:55:28.017Z,10.94
2017-10-28T01:57:54.920Z,10.99
2017-10-28T02:00:21.415Z,10.98
2017-10-28T02:02:47.591Z,10.96
2017-10-28T02:05:13.739Z,10.96
2017-10-28T02:07:40.099Z,11.02
2017-10-28T02:10:06.261Z,10.92
2017-10-28T02:12:32.419Z,10.88
2017-10-28T02:14:58.629Z,10.79
2017-10-28T02:17:24.792Z,10.61
2017-10-28T02:19:51.713Z,10.49
2017-10-28T02:22:17.955Z,10.49
2017-10-28T02:24:44.889Z,10.45
2017-10-28T02:27:11.082Z,10.39
2017-10-28T02:29:51.107Z,10.43
2017-10-28T02:32:17.302Z,10.49
2017-10-28T02:34:43.453Z,10.49
2017-10-28T02:37:09.663Z,10.40
2017-10-28T02:39:35.907Z,10.46
2017-10-28T02:42:02.839Z,10.47
2017-10-28T02:44:29.760Z,10.40
2017-10-28T02:46:55.948Z,10.42
2017-10-28T02:49:22.114Z,10.37
2017-10-28T02:51:48.287Z,10.34
2017-10-28T02:54:14.723Z,10.28
2017-10-28T02:56:40.886Z,10.28
2017-10-28T02:59:07.082Z,10.31
2017-10-28T03:01:33.306Z,10.43
2017-10-28T03:03:59.492Z,10.32
2017-10-28T03:06:25.685Z,10.32
2017-10-28T03:08:51.924Z,10.35
2017-10-28T03:11:18.122Z,10.33
2017-10-28T03:13:44.312Z,10.32
2017-10-28T03:16:11.289Z,10.40
2017-10-28T03:18:37.453Z,10.34
2017-10-28T03:21:03.635Z,10.33
2017-10-28T03:23:30.068Z,10.31
2017-10-28T03:25:56.250Z,10.34
2017-10-28T03:28:22.452Z,10.33
2017-10-28T03:30:48.694Z,10.33
2017-10-28T03:33:15.192Z,10.34
2017-10-28T03:35:41.357Z,10.33
2017-10-28T03:38:08.281Z,10.33
2017-10-28T03:40:34.452Z,10.31
2017-10-28T03:43:01.372Z,10.30
2017-10-28T03:45:27.576Z,10.30
2017-10-28T03:47:53.716Z,10.26
2017-10-28T03:50:20.628Z,10.28
2017-10-28T03:52:46.832Z,10.28
2017-10-28T03:55:13.728Z,10.29
2017-10-28T03:57:39.892Z,10.33
2017-10-28T04:00:06.820Z,10.30
2017-10-28T04:02:33.007Z,10.33
2017-10-28T04:04:59.157Z,10.33
2017-10-28T04:07:25.337Z,10.33
2017-10-28T04:09:51.505Z,10.37
2017-10-28T04:12:17.704Z,10.40
2017-10-28T04:14:43.864Z,10.39
2017-10-28T04:17:10.051Z,10.40
2017-10-28T04:19:36.216Z,10.38
2017-10-28T04:22:02.385Z,10.33
2017-10-28T04:24:29.312Z,10.36
2017-10-28T04:26:55.464Z,10.35
2017-10-28T04:29:21.620Z,10.38
2017-10-28T04:31:47.793Z,10.32
2017-10-28T04:34:13.975Z,10.35
2017-10-28T04:36:40.184Z,10.33
2017-10-28T04:39:06.342Z,10.29
2017-10-28T04:41:32.577Z,10.32
2017-10-28T04:43:58.761Z,10.34
2017-10-28T04:46:24.924Z,10.36
2017-10-28T04:48:51.084Z,10.37
2017-10-28T04:51:17.280Z,10.36
2017-10-28T04:53:43.459Z,10.32
2017-10-28T04:56:10.374Z,10.33
2017-10-28T04:58:36.577Z,10.36
2017-10-28T05:01:02.757Z,10.38
2017-10-28T05:03:29.676Z,10.38
2017-10-28T05:05:55.858Z,10.37
2017-10-28T05:08:22.061Z,10.37
2017-10-28T05:10:48.247Z,10.36
2017-10-28T05:13:14.683Z,10.32
2017-10-28T05:15:40.870Z,10.34
2017-10-28T05:18:07.066Z,10.35
2017-10-28T05:20:34.443Z,10.33
2017-10-28T05:23:00.633Z,10.36
2017-10-28T05:25:27.783Z,10.34
2017-10-28T05:27:54.993Z,10.35
2017-10-28T05:30:21.426Z,10.35
2017-10-28T05:32:47.863Z,10.32
2017-10-28T05:35:14.148Z,10.31
2017-10-28T05:37:40.300Z,10.36
2017-10-28T05:40:06.465Z,10.38
2017-10-28T05:42:32.707Z,10.36
2017-10-28T05:44:58.880Z,10.33
2017-10-28T05:47:25.064Z,10.36
2017-10-28T05:49:52.001Z,10.39
2017-10-28T05:52:18.175Z,10.38
2017-10-28T05:54:44.362Z,10.43
2017-10-28T05:57:11.326Z,10.39
2017-10-28T05:59:37.504Z,10.43
2017-10-28T06:02:03.685Z,10.43
2017-10-28T06:04:29.872Z,10.43
2017-10-28T06:06:56.068Z,10.44
2017-10-28T06:09:22.236Z,10.42
2017-10-28T06:11:48.426Z,10.42
2017-10-28T06:14:14.585Z,10.37
2017-10-28T06:16:40.764Z,10.39
2017-10-28T06:19:06.951Z,10.36
2017-10-28T06:21:33.875Z,10.44
2017-10-28T06:24:00.048Z,10.50
2017-10-28T06:26:26.502Z,10.42
2017-10-28T06:28:52.667Z,10.47
2017-10-28T06:31:18.852Z,10.49
2017-10-28T06:33:45.029Z,10.53
2017-10-28T06:36:11.212Z,10.51
2017-10-28T06:38:37.412Z,10.51
2017-10-28T06:41:03.613Z,10.54
2017-10-28T06:43:30.525Z,10.51
2017-10-28T06:45:56.708Z,10.58
2017-10-28T06:48:22.871Z,10.64
2017-10-28T06:50:49.039Z,10.66
2017-10-28T06:53:15.979Z,10.69
2017-10-28T06:55:42.172Z,10.63
2017-10-28T06:58:08.356Z,10.70
2017-10-28T07:00:35.379Z,10.71
2017-10-28T07:03:01.569Z,10.74
2017-10-28T07:05:27.738Z,10.75
2017-10-28T07:07:54.743Z,10.79
2017-10-28T07:10:20.934Z,10.79
2017-10-28T07:12:47.136Z,10.78
2017-10-28T07:15:14.628Z,10.75
2017-10-28T07:17:40.815Z,10.77
2017-10-28T07:20:07.003Z,10.70
2017-10-28T07:22:33.499Z,10.69
2017-10-28T07:25:00.397Z,10.69
2017-10-28T07:27:26.568Z,10.68
2017-10-28T07:29:53.596Z,10.70
2017-10-28T07:32:19.745Z,10.75
2017-10-28T07:34:46.011Z,10.70
2017-10-28T07:37:12.225Z,10.73
2017-10-28T07:39:38.393Z,10.75
2017-10-28T07:42:04.554Z,10.75
2017-10-28T07:44:31.489Z,10.76
2017-10-28T07:46:58.393Z,10.81
2017-10-28T07:49:24.604Z,10.81
2017-10-28T07:51:50.795Z,10.87
2017-10-28T07:54:17.713Z,10.89
2017-10-28T07:56:43.877Z,10.93
2017-10-28T07:59:10.220Z,10.95
2017-10-28T08:01:37.805Z,11.02
2017-10-28T08:04:10.125Z,11.06
2017-10-28T08:06:37.034Z,11.07
2017-10-28T08:09:03.225Z,11.11
2017-10-28T08:11:29.511Z,11.24
2017-10-28T08:13:56.429Z,11.30
2017-10-28T08:16:22.616Z,11.35
2017-10-28T08:18:48.808Z,11.32
2017-10-28T08:21:16.100Z,11.30
2017-10-28T08:23:42.283Z,11.37
2017-10-28T08:26:09.210Z,11.35
2017-10-28T08:28:35.596Z,11.44
2017-10-28T08:31:01.772Z,11.50
2017-10-28T08:33:28.842Z,11.56
2017-10-28T08:35:56.238Z,11.50
2017-10-28T08:38:22.419Z,11.47
2017-10-28T08:40:49.378Z,11.55
2017-10-28T08:43:15.623Z,11.71
2017-10-28T08:45:42.732Z,11.66
2017-10-28T08:48:08.917Z,11.61
2017-10-28T08:50:35.442Z,11.67
2017-10-28T08:53:01.628Z,11.67
2017-10-28T08:55:28.736Z,11.65
2017-10-28T08:57:55.024Z,11.81
2017-10-28T09:00:21.863Z,11.89
2017-10-28T09:02:49.522Z,11.92
2017-10-28T09:05:16.765Z,11.76
2017-10-28T09:07:43.772Z,11.76
2017-10-28T09:10:11.476Z,11.94
2017-10-28T09:12:39.279Z,11.91
2017-10-28T09:15:07.168Z,11.94
2017-10-28T09:17:35.035Z,12.08
2017-10-28T09:20:02.800Z,12.08
2017-10-28T09:22:36.948Z,12.20
2017-10-28T09:25:04.235Z,12.24
2017-10-28T09:27:30.536Z,12.26
2017-10-28T09:29:57.448Z,12.24
2017-10-28T09:32:23.637Z,12.33
2017-10-28T09:34:49.798Z,12.28
2017-10-28T09:37:15.979Z,12.26
2017-10-28T09:39:42.257Z,12.25
2017-10-28T09:42:08.436Z,12.28
2017-10-28T09:44:34.610Z,12.25
2017-10-28T09:47:01.939Z,12.27
2017-10-28T09:49:28.895Z,12.23
2017-10-28T09:51:55.059Z,12.26
2017-10-28T09:54:21.525Z,12.29
2017-10-28T09:56:47.687Z,12.61
2017-10-28T09:59:13.892Z,12.59
2017-10-28T10:01:40.175Z,12.51
2017-10-28T10:04:06.349Z,12.67
2017-10-28T10:06:32.523Z,12.74
2017-10-28T10:08:58.730Z,12.72
2017-10-28T10:11:25.048Z,12.58
2017-10-28T10:13:51.215Z,12.57
2017-10-28T10:16:17.423Z,12.73
2017-10-28T10:18:43.600Z,12.75
2017-10-28T10:21:09.758Z,12.70
2017-10-28T10:23:35.928Z,12.70
2017-10-28T10:26:02.836Z,12.75
2017-10-28T10:28:29.035Z,12.73
2017-10-28T10:30:55.199Z,12.77
2017-10-28T10:33:21.364Z,12.68
2017-10-28T10:35:48.298Z,12.66
2017-10-28T10:38:15.197Z,12.72
2017-10-28T10:40:41.356Z,12.65
2017-10-28T10:43:07.560Z,12.61
2017-10-28T10:45:33.733Z,12.67
2017-10-28T10:48:00.646Z,12.71
2017-10-28T10:50:26.832Z,12.79
2017-10-28T10:52:53.010Z,12.76
2017-10-28T10:55:19.170Z,12.77
2017-10-28T10:57:45.360Z,12.79
2017-10-28T11:00:11.536Z,12.85
2017-10-28T11:02:37.689Z,12.84
2017-10-28T11:05:03.896Z,12.82
2017-10-28T11:07:30.068Z,12.80
2017-10-28T11:09:56.219Z,12.84
2017-10-28T11:12:22.416Z,12.82
2017-10-28T11:14:48.887Z,12.78
2017-10-28T11:17:15.069Z,12.83
2017-10-28T11:19:41.443Z,12.88
2017-10-28T11:22:07.611Z,12.85
2017-10-28T11:24:33.795Z,12.91
2017-10-28T11:26:59.991Z,12.91
2017-10-28T11:29:26.143Z,12.94
2017-10-28T11:31:53.048Z,13.04
2017-10-28T11:34:19.249Z,13.04
2017-10-28T11:36:45.423Z,13.14
2017-10-28T11:39:12.360Z,13.13
2017-10-28T11:41:38.574Z,13.13
2017-10-28T11:44:05.011Z,13.04
2017-10-28T11:46:31.940Z,12.76
2017-10-28T11:48:58.141Z,12.67
2017-10-28T11:51:24.300Z,12.52
2017-10-28T11:53:50.473Z,12.47
2017-10-28T11:56:17.093Z,12.40
2017-10-28T11:58:43.342Z,12.31
2017-10-28T12:01:09.771Z,12.26
2017-10-28T12:03:36.193Z,12.26
2017-10-28T12:06:03.149Z,12.35
2017-10-28T12:08:29.328Z,12.41
2017-10-28T12:10:55.506Z,12.44
2017-10-28T12:13:21.945Z,12.55
2017-10-28T12:15:48.164Z,12.54
2017-10-28T12:18:14.344Z,12.61
2017-10-28T12:20:40.731Z,12.68
2017-10-28T12:23:07.149Z,12.65
2017-10-28T12:25:33.344Z,12.67
2017-10-28T12:27:59.532Z,12.60
2017-10-28T12:30:25.692Z,12.56
2017-10-28T12:32:51.835Z,12.59
2017-10-28T12:35:18.012Z,12.46
2017-10-28T12:37:44.191Z,12.41
2017-10-28T12:40:11.128Z,12.32
2017-10-28T12:42:37.343Z,12.37
2017-10-28T12:45:03.510Z,12.40
2017-10-28T12:47:29.678Z,12.47
2017-10-28T12:49:55.836Z,12.52
2017-10-28T12:52:22.021Z,12.62
2017-10-28T12:54:48.203Z,12.67
2017-10-28T12:57:15.112Z,12.76
2017-10-28T12:59:41.289Z,12.79
2017-10-28T13:02:07.807Z,12.80
2017-10-28T13:04:34.721Z,12.91
2017-10-28T13:07:00.873Z,12.94
2017-10-28T13:09:27.815Z,12.95
2017-10-28T13:11:53.983Z,13.04
2017-10-28T13:14:20.163Z,13.00
2017-10-28T13:16:46.562Z,13.00
2017-10-28T13:19:12.743Z,13.04
2017-10-28T13:21:39.667Z,13.05
2017-10-28T13:24:05.964Z,13.02
2017-10-28T13:26:32.240Z,13.07
2017-10-28T13:28:59.145Z,13.06
2017-10-28T13:31:25.316Z,13.03
2017-10-28T13:33:52.235Z,13.07
2017-10-28T13:36:18.425Z,13.03
2017-10-28T13:38:44.601Z,12.83
2017-10-28T13:41:11.536Z,12.65
2017-10-28T13:43:37.728Z,12.26
2017-10-28T13:46:03.911Z,12.16
2017-10-28T13:48:30.835Z,12.14
2017-10-28T13:50:57.040Z,12.16
2017-10-28T13:53:23.217Z,12.12
2017-10-28T13:55:49.404Z,12.05
2017-10-28T13:58:15.602Z,12.04
2017-10-28T14:00:41.778Z,12.03
2017-10-28T14:03:08.692Z,12.01
2017-10-28T14:05:34.875Z,11.98
2017-10-28T14:08:01.048Z,11.90
2017-10-28T14:10:27.240Z,11.84
2017-10-28T14:12:53.409Z,11.88
2017-10-28T14:15:19.576Z,11.86
2017-10-28T14:17:45.815Z,11.83
2017-10-28T14:20:11.980Z,11.84
2017-10-28T14:22:38.147Z,11.88
2017-10-28T14:25:05.072Z,11.88
2017-10-28T14:27:31.297Z,11.89
2017-10-28T14:29:57.475Z,11.88
2017-10-28T14:32:23.655Z,11.94
2017-10-28T14:34:49.816Z,11.96
2017-10-28T14:37:15.990Z,11.91
2017-10-28T14:39:42.483Z,11.87
2017-10-28T14:42:08.700Z,11.79
2017-10-28T14:44:34.879Z,11.68
2017-10-28T14:47:01.221Z,11.63
2017-10-28T14:49:27.377Z,11.61
2017-10-28T14:51:53.562Z,11.58
2017-10-28T14:54:19.747Z,11.57
2017-10-28T14:56:45.920Z,11.59
2017-10-28T14:59:12.104Z,11.50
2017-10-28T15:01:38.645Z,11.53
2017-10-28T15:04:04.822Z,11.51
2017-10-28T15:06:31.000Z,11.56
2017-10-28T15:08:57.530Z,11.58
2017-10-28T15:11:23.681Z,11.52
2017-10-28T15:13:49.847Z,11.56
2017-10-28T15:16:16.415Z,11.56
2017-10-28T15:18:42.584Z,11.57
2017-10-28T15:21:08.756Z,11.55
2017-10-28T15:23:34.932Z,11.48
2017-10-28T15:26:01.104Z,11.43
2017-10-28T15:28:28.020Z,11.42
2017-10-28T15:30:54.179Z,11.33
2017-10-28T15:33:20.328Z,11.22
2017-10-28T15:35:46.533Z,11.18
2017-10-28T15:38:12.714Z,11.19
2017-10-28T15:40:38.862Z,11.21
2017-10-28T15:43:05.129Z,11.21
2017-10-28T15:45:31.315Z,11.20
2017-10-28T15:47:57.563Z,11.17
2017-10-28T15:50:24.514Z,11.20
2017-10-28T15:52:51.452Z,11.26
2017-10-28T15:55:18.361Z,11.24
2017-10-28T15:57:44.572Z,11.31
2017-10-28T16:00:10.757Z,11.32
2017-10-28T16:02:36.935Z,11.34
2017-10-28T16:05:03.166Z,11.33
2017-10-28T16:07:30.095Z,11.39
2017-10-28T16:09:56.257Z,11.38
2017-10-28T16:12:23.259Z,11.40
2017-10-28T16:14:49.455Z,11.44
2017-10-28T16:17:15.600Z,11.47
2017-10-28T16:19:42.130Z,11.53
2017-10-28T16:22:08.298Z,11.72
2017-10-28T16:24:34.498Z,11.66
2017-10-28T16:27:00.677Z,11.79
2017-10-28T16:29:27.587Z,11.75
2017-10-28T16:31:53.769Z,11.95
2017-10-28T16:34:20.313Z,11.95
2017-10-28T16:36:46.476Z,11.89
2017-10-28T16:39:12.641Z,11.89
2017-10-28T16:41:39.566Z,11.96
2017-10-28T16:44:05.756Z,11.98
2017-10-28T16:46:31.932Z,11.98
2017-10-28T16:48:58.128Z,12.02
2017-10-28T16:51:24.285Z,12.05
2017-10-28T16:53:50.458Z,12.02
2017-10-28T16:56:16.640Z,11.95
2017-10-28T16:58:43.548Z,12.10
2017-10-28T17:01:09.715Z,11.89
2017-10-28T17:03:36.656Z,11.88
2017-10-28T17:06:03.580Z,11.86
2017-10-28T17:08:29.744Z,11.88
2017-10-28T17:10:56.792Z,11.75
2017-10-28T17:13:23.685Z,11.70
2017-10-28T17:15:49.836Z,11.69
2017-10-28T17:18:16.037Z,11.68
2017-10-28T17:20:42.216Z,11.65
2017-10-28T17:23:08.425Z,11.63
2017-10-28T17:25:35.365Z,11.64
2017-10-28T17:28:01.544Z,11.64
2017-10-28T17:30:27.714Z,11.69
2017-10-28T17:32:54.000Z,11.58
2017-10-28T17:35:20.174Z,11.59
2017-10-28T17:37:46.350Z,11.57
2017-10-28T17:40:12.552Z,11.69
2017-10-28T17:42:38.766Z,11.59
2017-10-28T17:45:05.675Z,11.57
2017-10-28T17:47:31.866Z,11.58
2017-10-28T17:49:58.048Z,11.57
2017-10-28T17:52:24.200Z,11.61
2017-10-28T17:54:51.137Z,11.63
2017-10-28T17:57:18.055Z,11.67
2017-10-28T17:59:44.218Z,11.66
2017-10-28T18:02:11.131Z,11.70
2017-10-28T18:04:37.290Z,11.66
2017-10-28T18:07:03.470Z,11.69
2017-10-28T18:09:29.644Z,11.69
2017-10-28T18:11:55.808Z,11.71
2017-10-28T18:14:22.024Z,11.70
2017-10-28T18:16:48.219Z,11.66
2017-10-28T18:19:15.121Z,11.70
2017-10-28T18:21:41.293Z,11.76
2017-10-28T18:24:08.202Z,11.75
2017-10-28T18:26:34.395Z,11.73
2017-10-28T18:29:00.607Z,11.73
2017-10-28T18:31:26.791Z,11.75
2017-10-28T18:33:52.952Z,11.73
2017-10-28T18:36:19.141Z,11.75
2017-10-28T18:38:45.303Z,11.79
2017-10-28T18:41:11.532Z,11.82
2017-10-28T18:43:37.713Z,11.79
2017-10-28T18:46:03.885Z,11.80
2017-10-28T18:48:30.438Z,11.86
2017-10-28T18:50:56.668Z,11.88
2017-10-28T18:53:22.830Z,11.85
2017-10-28T18:55:49.124Z,11.85
2017-10-28T18:58:15.299Z,11.86
2017-10-28T19:00:41.468Z,11.84
2017-10-28T19:03:07.703Z,11.89
2017-10-28T19:05:33.871Z,11.88
2017-10-28T19:08:00.049Z,11.88
2017-10-28T19:10:26.225Z,11.84
2017-10-28T19:12:52.389Z,11.84
2017-10-28T19:15:18.616Z,11.83
2017-10-28T19:17:44.794Z,11.86
2017-10-28T19:20:10.984Z,11.82
2017-10-28T19:22:37.424Z,11.83
2017-10-28T19:25:03.610Z,11.84
2017-10-28T19:27:30.527Z,11.83
2017-10-28T19:29:57.023Z,11.80
2017-10-28T19:32:23.213Z,11.85
2017-10-28T19:34:50.136Z,11.88
2017-10-28T19:37:16.528Z,11.92
2017-10-28T19:39:43.426Z,11.95
2017-10-28T19:42:10.236Z,11.99
2017-10-28T19:44:37.603Z,11.99
2017-10-28T19:47:05.315Z,12.03
2017-10-28T19:49:32.333Z,12.11
2017-10-28T19:51:59.603Z,12.17
2017-10-28T19:54:27.024Z,12.19
2017-10-28T19:56:54.057Z,12.16
2017-10-28T19:59:22.832Z,12.17
2017-10-28T20:01:49.863Z,12.15
2017-10-28T20:04:16.729Z,12.15
2017-10-28T20:06:43.360Z,12.14
2017-10-28T20:09:10.047Z,12.14
2017-10-28T20:11:37.046Z,12.13
2017-10-28T20:14:03.909Z,12.15
2017-10-28T20:16:30.861Z,12.17
2017-10-28T20:18:57.031Z,12.18
2017-10-28T20:21:23.209Z,12.20
2017-10-28T20:23:49.430Z,12.24
2017-10-28T20:26:16.361Z,12.33
2017-10-28T20:28:42.545Z,12.40
2017-10-28T20:31:10.242Z,12.45
2017-10-28T20:33:36.421Z,12.49
2017-10-28T20:36:03.351Z,12.46
2017-10-28T20:38:29.911Z,12.50
2017-10-28T20:40:57.730Z,12.49
2017-10-28T20:43:24.688Z,12.56
2017-10-28T20:45:50.969Z,12.54
2017-10-28T20:48:17.153Z,12.59
2017-10-28T20:50:43.315Z,12.65
2017-10-28T20:53:10.238Z,12.62
2017-10-28T20:55:37.657Z,12.68
2017-10-28T20:58:03.827Z,12.69
2017-10-28T21:00:31.621Z,12.68
2017-10-28T21:02:57.874Z,12.64
2017-10-28T21:05:24.839Z,12.62
2017-10-28T21:07:51.024Z,12.54
2017-10-28T21:10:17.289Z,12.52
2017-10-28T21:12:45.564Z,12.48
2017-10-28T21:15:11.765Z,12.49
2017-10-28T21:17:38.156Z,12.43
2017-10-28T21:20:04.418Z,12.43
2017-10-28T21:22:31.099Z,12.34
2017-10-28T21:24:57.335Z,12.30
2017-10-28T21:27:23.613Z,12.28
2017-10-28T21:29:49.946Z,12.30
2017-10-28T21:32:16.173Z,12.29
2017-10-28T21:34:42.360Z,12.28
2017-10-28T21:37:09.494Z,12.38
2017-10-28T21:39:36.279Z,12.31
2017-10-28T21:42:02.484Z,12.27
2017-10-28T21:44:29.398Z,12.35
2017-10-28T21:46:55.769Z,12.28
2017-10-28T21:49:21.976Z,12.31
2017-10-28T21:51:48.136Z,12.24
2017-10-28T21:54:15.241Z,12.25
2017-10-28T21:56:41.404Z,12.28
2017-10-28T21:59:07.604Z,12.34
2017-10-28T22:01:33.948Z,12.34
2017-10-28T22:04:00.160Z,12.39
2017-10-28T22:06:26.365Z,12.45
2017-10-28T22:08:52.557Z,12.44
2017-10-28T22:11:18.729Z,12.50
2017-10-28T22:13:44.916Z,12.50
2017-10-28T22:16:11.081Z,12.50
2017-10-28T22:18:38.085Z,12.52
2017-10-28T22:21:04.332Z,12.54
2017-10-28T22:23:30.501Z,12.53
2017-10-28T22:25:56.754Z,12.53
2017-10-28T22:28:22.942Z,12.55
2017-10-28T22:30:49.108Z,12.55
2017-10-28T22:33:15.280Z,12.57
2017-10-28T22:35:41.571Z,12.57
2017-10-28T22:38:07.738Z,12.55
2017-10-28T22:40:33.938Z,12.53
2017-10-28T22:43:00.139Z,12.51
2017-10-28T22:45:26.296Z,12.54
2017-10-28T22:47:52.519Z,12.53
2017-10-28T22:50:18.719Z,12.53
2017-10-28T22:52:45.615Z,12.53
2017-10-28T22:55:11.817Z,12.51
2017-10-28T22:57:38.017Z,12.54
2017-10-28T23:00:04.944Z,12.51
2017-10-28T23:02:31.860Z,12.45
2017-10-28T23:04:58.966Z,12.39
2017-10-28T23:07:25.155Z,12.28
2017-10-28T23:09:51.319Z,12.23
2017-10-28T23:12:17.623Z,12.14
2017-10-28T23:14:44.818Z,12.18
2017-10-28T23:17:10.999Z,12.09
2017-10-28T23:19:38.295Z,12.06
2017-10-28T23:22:04.453Z,12.07
2017-10-28T23:24:30.625Z,11.99
2017-10-28T23:26:56.808Z,11.98
2017-10-28T23:29:23.727Z,11.94
2017-10-28T23:31:49.967Z,11.99
2017-10-28T23:34:16.128Z,11.98
2017-10-28T23:36:42.305Z,11.97
2017-10-28T23:39:08.519Z,11.95
2017-10-28T23:41:34.677Z,11.94
2017-10-28T23:44:00.856Z,11.92
2017-10-28T23:46:27.775Z,11.93
2017-10-28T23:48:53.930Z,11.91
2017-10-28T23:51:20.108Z,11.90
2017-10-28T23:53:47.217Z,11.84
2017-10-28T23:56:13.377Z,11.84
2017-10-28T23:58:39.558Z,11.81
